AFL1010 UNKL-UNNT
Flight info
| Callsign | AFL1010 |
|---|---|
| Flight time | N/A |
| Altitude | 38000 |
| Route | APRUS2F APRUS B926 NATIR NATIR1P |
| Aircraft | A20N/M-SDE2E3FGHIRWXY/LB1 |
Departure
| Time | 2026-05-01 14:46 |
|---|---|
| Airport | Krasnoyarsk International Airport (UNKL) |
Arrival
| Time | N/A |
|---|---|
| Airport | Novosibirsk Tolmachevo Airport (UNNT) |
| Time | Latitude | Longitude | Altitude | Speed | Heading |
|---|---|---|---|---|---|
| 2026-05-01 13:58 | 56.17971 | 92.48436 | 951 ft | 0 kts | 22° |
| 2026-05-01 14:30 | 56.17934 | 92.48409 | 949 ft | 2 kts | 22° |
| 2026-05-01 14:30 | 56.17915 | 92.48388 | 950 ft | 3 kts | 58° |
| 2026-05-01 14:30 | 56.17908 | 92.48349 | 949 ft | 3 kts | 71° |
| 2026-05-01 14:31 | 56.17902 | 92.48310 | 949 ft | 0 kts | 109° |
| 2026-05-01 14:37 | 56.17900 | 92.48323 | 949 ft | 3 kts | 109° |
| 2026-05-01 14:37 | 56.17888 | 92.48384 | 949 ft | 7 kts | 110° |
| 2026-05-01 14:38 | 56.17846 | 92.48451 | 951 ft | 10 kts | 173° |
| 2026-05-01 14:38 | 56.17771 | 92.48412 | 951 ft | 12 kts | 186° |
| 2026-05-01 14:38 | 56.17710 | 92.48519 | 951 ft | 15 kts | 113° |
| 2026-05-01 14:38 | 56.17664 | 92.48711 | 951 ft | 19 kts | 112° |
| 2026-05-01 14:39 | 56.17608 | 92.48943 | 951 ft | 22 kts | 114° |
| 2026-05-01 14:39 | 56.17545 | 92.49212 | 951 ft | 25 kts | 113° |
| 2026-05-01 14:39 | 56.17475 | 92.49513 | 951 ft | 27 kts | 112° |
| 2026-05-01 14:39 | 56.17395 | 92.49837 | 951 ft | 29 kts | 112° |
| 2026-05-01 14:40 | 56.17314 | 92.50176 | 951 ft | 28 kts | 114° |
| 2026-05-01 14:40 | 56.17252 | 92.50397 | 949 ft | 8 kts | 139° |
| 2026-05-01 14:40 | 56.17196 | 92.50408 | 951 ft | 5 kts | 200° |
| 2026-05-01 14:40 | 56.17166 | 92.50386 | 951 ft | 0 kts | 201° |
| 2026-05-01 14:43 | 56.17165 | 92.50385 | 951 ft | 1 kts | 201° |
| 2026-05-01 14:44 | 56.17139 | 92.50367 | 950 ft | 7 kts | 201° |
| 2026-05-01 14:44 | 56.17089 | 92.50171 | 949 ft | 0 kts | 292° |
| 2026-05-01 14:45 | 56.17090 | 92.50168 | 949 ft | 3 kts | 292° |
| 2026-05-01 14:45 | 56.17222 | 92.49613 | 951 ft | 96 kts | 293° |
| 2026-05-01 14:46 | 56.17584 | 92.48064 | 1038 ft | 163 kts | 292° |
| 2026-05-01 14:46 | 56.18519 | 92.44111 | 2924 ft | 177 kts | 293° |
| 2026-05-01 14:46 | 56.19038 | 92.41982 | 3759 ft | 196 kts | 293° |
| 2026-05-01 14:47 | 56.19608 | 92.39611 | 4531 ft | 218 kts | 293° |
| 2026-05-01 14:47 | 56.20229 | 92.36997 | 5221 ft | 238 kts | 292° |
| 2026-05-01 14:47 | 56.20904 | 92.34133 | 5920 ft | 259 kts | 292° |
| 2026-05-01 14:48 | 56.21906 | 92.28943 | 7529 ft | 268 kts | 275° |
| 2026-05-01 14:48 | 56.21703 | 92.25597 | 8345 ft | 274 kts | 252° |
| 2026-05-01 14:48 | 56.20289 | 92.19167 | 8933 ft | 278 kts | 249° |
| 2026-05-01 14:49 | 56.18797 | 92.12681 | 10492 ft | 282 kts | 250° |
| 2026-05-01 14:49 | 56.17238 | 92.05764 | 11616 ft | 321 kts | 250° |
| 2026-05-01 14:50 | 56.15802 | 91.99366 | 12835 ft | 337 kts | 250° |
| 2026-05-01 14:50 | 56.13712 | 91.90119 | 14904 ft | 346 kts | 251° |
| 2026-05-01 14:51 | 56.12802 | 91.86100 | 15744 ft | 350 kts | 251° |
| 2026-05-01 14:51 | 56.10950 | 91.77931 | 17358 ft | 358 kts | 251° |
| 2026-05-01 14:52 | 56.09052 | 91.69595 | 18879 ft | 366 kts | 252° |
| 2026-05-01 14:52 | 56.08089 | 91.65377 | 19564 ft | 369 kts | 252° |
| 2026-05-01 14:52 | 56.06613 | 91.58771 | 20594 ft | 375 kts | 253° |
| 2026-05-01 14:53 | 56.05640 | 91.54407 | 21254 ft | 379 kts | 252° |
| 2026-05-01 14:53 | 56.04645 | 91.50017 | 21907 ft | 383 kts | 252° |
| 2026-05-01 14:53 | 56.03627 | 91.45586 | 22562 ft | 387 kts | 252° |
| 2026-05-01 14:53 | 56.02605 | 91.41174 | 23204 ft | 391 kts | 252° |
| 2026-05-01 14:54 | 56.01558 | 91.36672 | 23806 ft | 395 kts | 252° |
| 2026-05-01 14:54 | 56.00496 | 91.32123 | 24371 ft | 397 kts | 252° |
| 2026-05-01 14:54 | 55.99428 | 91.27552 | 24941 ft | 400 kts | 252° |
| 2026-05-01 14:54 | 55.98453 | 91.22903 | 25485 ft | 399 kts | 258° |
| 2026-05-01 14:55 | 55.97795 | 91.18090 | 26005 ft | 400 kts | 263° |
| 2026-05-01 14:55 | 55.97232 | 91.13219 | 26531 ft | 402 kts | 263° |
| 2026-05-01 14:55 | 55.96661 | 91.08314 | 27044 ft | 405 kts | 263° |
| 2026-05-01 14:55 | 55.96082 | 91.03384 | 27535 ft | 407 kts | 263° |
| 2026-05-01 14:56 | 55.95494 | 90.98419 | 28014 ft | 410 kts | 262° |
| 2026-05-01 14:56 | 55.94900 | 90.93424 | 28477 ft | 413 kts | 262° |
| 2026-05-01 14:56 | 55.94299 | 90.88405 | 28924 ft | 415 kts | 262° |
| 2026-05-01 14:56 | 55.93693 | 90.83352 | 29359 ft | 418 kts | 262° |
| 2026-05-01 14:57 | 55.93080 | 90.78265 | 29791 ft | 420 kts | 262° |
| 2026-05-01 14:57 | 55.91847 | 90.68077 | 30561 ft | 425 kts | 262° |
| 2026-05-01 14:57 | 55.91221 | 90.62948 | 31152 ft | 420 kts | 262° |
| 2026-05-01 14:58 | 55.90606 | 90.57972 | 32357 ft | 400 kts | 263° |
| 2026-05-01 14:58 | 55.90020 | 90.53264 | 33656 ft | 378 kts | 263° |
| 2026-05-01 14:58 | 55.89462 | 90.48781 | 34588 ft | 366 kts | 263° |
| 2026-05-01 14:58 | 55.88919 | 90.44358 | 34955 ft | 365 kts | 264° |
| 2026-05-01 14:59 | 55.88379 | 90.39935 | 35241 ft | 366 kts | 263° |
| 2026-05-01 14:59 | 55.87834 | 90.35502 | 35568 ft | 366 kts | 263° |
| 2026-05-01 14:59 | 55.87286 | 90.31081 | 35875 ft | 366 kts | 263° |
| 2026-05-01 14:59 | 55.86735 | 90.26658 | 36166 ft | 365 kts | 263° |
| 2026-05-01 15:00 | 55.85629 | 90.17828 | 36737 ft | 365 kts | 263° |
| 2026-05-01 15:00 | 55.85075 | 90.13425 | 37016 ft | 365 kts | 263° |
| 2026-05-01 15:00 | 55.84518 | 90.09016 | 37269 ft | 365 kts | 263° |
| 2026-05-01 15:01 | 55.83966 | 90.04660 | 37524 ft | 365 kts | 263° |
| 2026-05-01 15:01 | 55.83407 | 90.00266 | 37779 ft | 364 kts | 263° |
| 2026-05-01 15:01 | 55.82846 | 89.95864 | 38002 ft | 365 kts | 263° |
| 2026-05-01 15:02 | 55.81715 | 89.87015 | 38083 ft | 372 kts | 262° |
| 2026-05-01 15:02 | 55.80547 | 89.77922 | 38089 ft | 383 kts | 262° |
| 2026-05-01 15:03 | 55.79330 | 89.68531 | 38093 ft | 396 kts | 262° |
| 2026-05-01 15:03 | 55.78068 | 89.58859 | 38085 ft | 408 kts | 262° |
| 2026-05-01 15:04 | 55.76760 | 89.48914 | 38081 ft | 416 kts | 261° |
| 2026-05-01 15:04 | 55.75433 | 89.38917 | 38084 ft | 415 kts | 261° |
| 2026-05-01 15:05 | 55.74102 | 89.28939 | 38081 ft | 415 kts | 261° |
| 2026-05-01 15:05 | 55.72764 | 89.18964 | 38081 ft | 415 kts | 261° |
| 2026-05-01 15:06 | 55.71416 | 89.08980 | 38085 ft | 416 kts | 261° |
| 2026-05-01 15:06 | 55.70062 | 88.99003 | 38086 ft | 416 kts | 261° |
| 2026-05-01 15:07 | 55.68710 | 88.89091 | 38084 ft | 416 kts | 261° |
| 2026-05-01 15:07 | 55.67346 | 88.79118 | 38087 ft | 416 kts | 261° |
| 2026-05-01 15:08 | 55.65973 | 88.69143 | 38088 ft | 416 kts | 261° |
| 2026-05-01 15:08 | 55.64592 | 88.59185 | 38085 ft | 416 kts | 260° |
| 2026-05-01 15:09 | 55.63201 | 88.49219 | 38097 ft | 416 kts | 260° |
| 2026-05-01 15:09 | 55.61803 | 88.39266 | 38081 ft | 416 kts | 260° |
| 2026-05-01 15:10 | 55.60407 | 88.29392 | 38094 ft | 416 kts | 260° |
| 2026-05-01 15:10 | 55.58287 | 88.14509 | 38080 ft | 416 kts | 259° |
| 2026-05-01 15:11 | 55.56146 | 87.99635 | 38084 ft | 416 kts | 259° |
| 2026-05-01 15:12 | 55.54713 | 87.89750 | 38076 ft | 415 kts | 259° |
| 2026-05-01 15:12 | 55.52546 | 87.74925 | 38065 ft | 415 kts | 259° |
| 2026-05-01 15:14 | 55.48906 | 87.50328 | 38060 ft | 415 kts | 258° |
| 2026-05-01 15:14 | 55.46677 | 87.35549 | 37998 ft | 416 kts | 258° |
| 2026-05-01 15:15 | 55.45188 | 87.25755 | 37147 ft | 413 kts | 258° |
| 2026-05-01 15:15 | 55.43695 | 87.15973 | 35733 ft | 414 kts | 258° |
| 2026-05-01 15:16 | 55.42187 | 87.06159 | 34399 ft | 414 kts | 258° |
| 2026-05-01 15:16 | 55.40666 | 86.96317 | 34049 ft | 422 kts | 258° |
| 2026-05-01 15:18 | 55.36780 | 86.71437 | 34044 ft | 424 kts | 257° |
| 2026-05-01 15:19 | 55.33618 | 86.51466 | 34041 ft | 424 kts | 257° |
| 2026-05-01 15:19 | 55.31222 | 86.36486 | 34046 ft | 425 kts | 257° |
| 2026-05-01 15:20 | 55.28814 | 86.21568 | 34046 ft | 425 kts | 256° |
| 2026-05-01 15:21 | 55.27252 | 86.11563 | 34047 ft | 424 kts | 261° |
| 2026-05-01 15:21 | 55.26601 | 86.01314 | 34043 ft | 422 kts | 267° |
| 2026-05-01 15:22 | 55.25874 | 85.85896 | 34040 ft | 423 kts | 266° |
| 2026-05-01 15:22 | 55.25367 | 85.75611 | 34036 ft | 423 kts | 266° |
| 2026-05-01 15:23 | 55.24852 | 85.65318 | 34038 ft | 424 kts | 266° |
| 2026-05-01 15:23 | 55.24332 | 85.55103 | 34034 ft | 424 kts | 266° |
| 2026-05-01 15:24 | 55.23798 | 85.44786 | 34027 ft | 424 kts | 265° |
| 2026-05-01 15:24 | 55.23256 | 85.34471 | 34025 ft | 425 kts | 265° |
| 2026-05-01 15:25 | 55.22705 | 85.24166 | 34025 ft | 425 kts | 265° |
| 2026-05-01 15:25 | 55.22145 | 85.13852 | 34020 ft | 425 kts | 265° |
| 2026-05-01 15:26 | 55.21579 | 85.03608 | 34016 ft | 425 kts | 265° |
| 2026-05-01 15:26 | 55.21001 | 84.93302 | 33984 ft | 424 kts | 265° |
| 2026-05-01 15:27 | 55.20711 | 84.88172 | 33547 ft | 423 kts | 265° |
| 2026-05-01 15:27 | 55.20417 | 84.83023 | 32687 ft | 427 kts | 264° |
| 2026-05-01 15:27 | 55.20118 | 84.77815 | 31605 ft | 433 kts | 264° |
| 2026-05-01 15:28 | 55.19115 | 84.67261 | 29294 ft | 444 kts | 255° |
| 2026-05-01 15:28 | 55.18165 | 84.62125 | 28358 ft | 442 kts | 251° |
| 2026-05-01 15:28 | 55.17158 | 84.57064 | 27589 ft | 437 kts | 251° |
| 2026-05-01 15:29 | 55.15204 | 84.47104 | 26061 ft | 429 kts | 251° |
| 2026-05-01 15:29 | 55.14238 | 84.42192 | 25307 ft | 425 kts | 251° |
| 2026-05-01 15:29 | 55.12318 | 84.32500 | 23872 ft | 418 kts | 250° |
| 2026-05-01 15:30 | 55.10737 | 84.24569 | 22653 ft | 411 kts | 250° |
| 2026-05-01 15:31 | 55.06752 | 84.04734 | 19701 ft | 390 kts | 250° |
| 2026-05-01 15:31 | 55.04964 | 83.95892 | 18415 ft | 381 kts | 250° |
| 2026-05-01 15:32 | 55.03212 | 83.87263 | 16967 ft | 374 kts | 250° |
| 2026-05-01 15:32 | 55.01475 | 83.78779 | 15553 ft | 368 kts | 250° |
| 2026-05-01 15:33 | 54.99190 | 83.67789 | 14118 ft | 351 kts | 250° |
| 2026-05-01 15:34 | 54.96774 | 83.56220 | 13979 ft | 339 kts | 249° |